Time;durP1;ratioP1;P1;durP2;ratioP2;P2;SDS_P1;SDS_P2;PMS_P1;PMS_P2;Temp;Humidity;BMP_temperature;BMP_pressure;BME280_temperature;BME280_humidity;BME280_pressure;Samples;Min_cycle;Max_cycle;Signal;HPM_P1;HPM_P2
2022/08/07 00:00:47;;;;;;;8.03;7.53;;;;;;;25.54;81.02;99021.25;5111552;28;20586;-68
2022/08/07 00:03:14;;;;;;;7.53;6.60;;;;;;;25.55;81.37;99018.50;5110380;28;20195;-68
2022/08/07 00:05:40;;;;;;;6.57;6.17;;;;;;;25.54;81.19;99026.50;5110466;28;20217;-68
2022/08/07 00:08:07;;;;;;;7.63;7.13;;;;;;;25.50;80.88;99028.59;5111301;28;20291;-68
2022/08/07 00:10:35;;;;;;;7.13;6.83;;;;;;;25.49;80.74;99029.56;5110855;28;21085;-68
2022/08/07 00:13:04;;;;;;;6.90;6.50;;;;;;;25.48;81.14;99021.84;5111175;28;20617;-68
2022/08/07 00:15:32;;;;;;;7.87;7.27;;;;;;;25.46;82.29;99029.03;5109748;28;20202;-68
2022/08/07 00:18:00;;;;;;;6.57;6.13;;;;;;;25.42;81.61;99019.81;5111085;28;20205;-68
2022/08/07 00:20:27;;;;;;;7.70;7.03;;;;;;;25.40;83.01;99014.69;5110815;28;20194;-68
2022/08/07 00:22:54;;;;;;;7.03;6.63;;;;;;;25.40;82.77;99006.00;5109638;28;20203;-68
2022/08/07 00:25:23;;;;;;;6.70;6.33;;;;;;;25.41;82.47;99010.28;5110805;28;20205;-68
2022/08/07 00:27:50;;;;;;;6.37;5.97;;;;;;;25.37;82.64;99011.53;5110229;28;20214;-68
2022/08/07 00:30:17;;;;;;;7.20;6.80;;;;;;;25.38;83.38;99005.31;5110905;28;20254;-68
2022/08/07 00:32:46;;;;;;;6.63;6.30;;;;;;;25.39;82.73;99007.81;5110498;28;20194;-68
2022/08/07 00:35:15;;;;;;;7.97;7.47;;;;;;;25.38;83.06;99007.94;5110892;28;20210;-68
2022/08/07 00:37:41;;;;;;;6.77;6.27;;;;;;;25.38;83.23;99007.94;5109777;28;20191;-69
2022/08/07 00:40:09;;;;;;;7.67;7.13;;;;;;;25.36;83.05;99005.50;5109970;28;20217;-68
2022/08/07 00:42:37;;;;;;;7.03;6.43;;;;;;;25.27;83.30;98992.41;5110591;28;20581;-68
2022/08/07 00:45:04;;;;;;;7.00;6.50;;;;;;;25.29;83.34;98995.72;5111364;28;20210;-68
2022/08/07 00:47:32;;;;;;;7.37;6.87;;;;;;;25.22;83.87;98994.66;5113757;28;20225;-68
2022/08/07 00:49:58;;;;;;;7.10;6.70;;;;;;;25.25;84.00;99010.09;5111658;28;20693;-68
2022/08/07 00:52:27;;;;;;;7.87;7.17;;;;;;;25.24;84.17;99014.53;5114459;28;20302;-68
2022/08/07 00:54:54;;;;;;;7.73;7.07;;;;;;;25.20;84.19;99013.19;5114779;28;20563;-68
2022/08/07 00:57:21;;;;;;;6.93;6.33;;;;;;;25.18;83.84;99014.28;5112838;28;20195;-68
2022/08/07 00:59:48;;;;;;;7.93;7.53;;;;;;;25.08;83.79;99009.09;5114382;28;20198;-68
2022/08/07 01:02:15;;;;;;;7.73;7.07;;;;;;;25.03;83.82;99012.19;5113146;28;20685;-68
2022/08/07 01:04:42;;;;;;;7.60;7.10;;;;;;;24.96;83.36;99020.78;5114119;28;20201;-68
2022/08/07 01:07:09;;;;;;;7.97;7.47;;;;;;;24.89;83.80;99017.09;5113895;28;20226;-68
2022/08/07 01:09:37;;;;;;;7.17;6.67;;;;;;;24.82;84.85;99016.84;5114554;28;20245;-68
2022/08/07 01:12:05;;;;;;;6.57;6.20;;;;;;;24.78;85.38;99025.94;5113415;28;20206;-68
2022/08/07 01:14:32;;;;;;;7.13;6.73;;;;;;;24.77;85.18;99020.84;5112137;27;20238;-68
2022/08/07 01:17:00;;;;;;;7.47;6.63;;;;;;;24.75;85.64;99015.72;5113858;28;20199;-68
2022/08/07 01:19:29;;;;;;;7.30;6.90;;;;;;;24.77;86.00;99020.84;5112635;28;20194;-68
2022/08/07 01:21:57;;;;;;;7.90;7.50;;;;;;;24.73;86.35;99009.81;5111964;28;20666;-68
2022/08/07 01:24:25;;;;;;;7.47;6.97;;;;;;;24.72;86.88;99008.16;5112233;28;20251;-68
2022/08/07 01:26:53;;;;;;;6.93;6.53;;;;;;;24.72;86.31;99016.03;5111483;28;20215;-68
2022/08/07 01:29:23;;;;;;;7.10;6.60;;;;;;;24.73;86.51;99014.22;5112379;28;20198;-68
2022/08/07 01:31:50;;;;;;;7.83;7.23;;;;;;;24.71;86.10;99011.78;5111677;28;20654;-68
2022/08/07 01:34:17;;;;;;;7.23;6.83;;;;;;;24.71;86.05;99011.78;5108585;28;20199;-68
2022/08/07 01:36:45;;;;;;;7.43;7.03;;;;;;;24.70;86.19;99006.66;5113867;28;20194;-68
2022/08/07 01:39:14;;;;;;;7.80;7.20;;;;;;;24.67;86.15;98999.91;5111167;28;20199;-69
2022/08/07 01:41:42;;;;;;;8.13;7.70;;;;;;;24.65;85.88;99004.50;5113744;28;20191;-68
2022/08/07 01:44:10;;;;;;;7.63;7.13;;;;;;;24.64;86.37;99005.44;5112319;28;20582;-68
2022/08/07 01:46:37;;;;;;;7.90;7.33;;;;;;;24.62;86.07;98996.88;5113599;28;20214;-68
2022/08/07 01:49:04;;;;;;;7.70;7.00;;;;;;;24.58;86.31;99000.78;5111882;28;20203;-68
2022/08/07 01:51:32;;;;;;;8.20;7.67;;;;;;;24.56;86.57;98992.22;5112171;28;20259;-68
2022/08/07 01:54:02;;;;;;;8.07;7.37;;;;;;;24.51;86.79;98989.22;5112944;28;20582;-68
2022/08/07 01:56:36;;;;;;;7.67;7.27;;;;;;;24.46;87.07;98996.66;5112994;28;20186;-68
2022/08/07 01:59:08;;;;;;;7.97;7.47;;;;;;;24.32;87.34;98989.28;5113684;28;20191;-68
2022/08/07 02:01:40;;;;;;;7.33;6.93;;;;;;;24.19;87.45;98988.78;5110722;28;20198;-68
2022/08/07 02:04:16;;;;;;;8.33;7.80;;;;;;;24.20;88.07;99003.53;5113025;28;20197;-68
2022/08/07 02:06:44;;;;;;;7.60;7.27;;;;;;;24.14;88.75;98997.03;5113165;28;20237;-68
2022/08/07 02:09:14;;;;;;;8.53;7.93;;;;;;;24.14;89.10;98993.59;5113014;28;20659;-68
2022/08/07 02:11:45;;;;;;;7.93;7.43;;;;;;;24.11;89.24;98992.06;5113230;28;20195;-68
2022/08/07 02:14:14;;;;;;;7.53;7.13;;;;;;;24.08;89.78;98991.50;5112140;28;20205;-68
2022/08/07 02:16:42;;;;;;;8.13;7.63;;;;;;;24.04;90.26;98991.81;5113392;28;20662;-68
2022/08/07 02:19:13;;;;;;;8.83;8.03;;;;;;;24.02;90.24;98996.38;5112988;28;20293;-68
2022/08/07 02:21:41;;;;;;;8.10;7.60;;;;;;;24.02;90.40;98996.38;5112886;28;20201;-68
2022/08/07 02:24:10;;;;;;;8.63;7.97;;;;;;;23.93;90.66;98997.22;5113072;28;20681;-68
2022/08/07 02:26:39;;;;;;;7.73;7.33;;;;;;;23.77;92.38;98996.97;5110708;28;20215;-68
2022/08/07 02:29:09;;;;;;;8.77;7.90;;;;;;;23.73;92.83;98987.72;5112904;28;20575;-68
2022/08/07 02:31:37;;;;;;;7.67;7.27;;;;;;;23.70;93.31;98992.41;5112980;28;20198;-68
2022/08/07 02:34:06;;;;;;;8.50;7.90;;;;;;;23.60;94.01;98973.25;5111826;28;20225;-68
2022/08/07 02:36:33;;;;;;;9.17;8.13;;;;;;;23.70;93.72;98988.00;5112730;28;20754;-68
2022/08/07 02:39:02;;;;;;;8.37;7.63;;;;;;;23.69;93.66;98988.97;5112216;28;20203;-68
2022/08/07 02:41:30;;;;;;;8.77;8.17;;;;;;;23.66;93.80;98991.84;5112345;28;20574;-68
2022/08/07 02:44:00;;;;;;;55.23;12.73;;;;;;;23.58;95.21;98983.88;5111891;28;20662;-68
2022/08/07 02:46:31;;;;;;;9.00;8.37;;;;;;;23.51;95.86;98994.06;5108219;28;20224;-68
2022/08/07 02:48:58;;;;;;;8.73;8.13;;;;;;;23.46;96.06;98996.25;5111209;28;20203;-68
2022/08/07 02:51:27;;;;;;;9.10;8.43;;;;;;;23.41;96.80;99000.25;5112113;28;20199;-68
2022/08/07 02:53:55;;;;;;;9.57;8.70;;;;;;;23.31;97.68;99005.44;5112094;28;20743;-69
2022/08/07 02:56:26;;;;;;;10.00;9.20;;;;;;;23.27;97.98;99013.69;5112486;28;20199;-68
2022/08/07 02:58:54;;;;;;;9.77;8.97;;;;;;;23.26;98.32;99001.59;5111465;28;20582;-68
2022/08/07 03:01:24;;;;;;;10.27;9.47;;;;;;;23.28;98.05;99016.19;5111294;28;20198;-68
2022/08/07 03:03:53;;;;;;;9.90;9.10;;;;;;;23.32;97.84;99014.13;5112091;28;20206;-68
2022/08/07 03:06:22;;;;;;;10.23;9.33;;;;;;;23.36;97.61;99015.50;5111784;28;20230;-68
2022/08/07 03:08:50;;;;;;;9.57;8.57;;;;;;;23.43;97.30;99016.63;5109798;28;20682;-68
2022/08/07 03:11:17;;;;;;;9.57;8.93;;;;;;;23.47;97.25;99013.63;5111290;28;20202;-68
2022/08/07 03:13:45;;;;;;;9.17;8.40;;;;;;;23.50;96.46;99007.28;5111494;28;20642;-68
2022/08/07 03:16:12;;;;;;;13.53;8.60;;;;;;;23.53;96.09;99005.22;5111960;28;20205;-68
2022/08/07 03:18:41;;;;;;;8.93;8.30;;;;;;;23.55;95.91;99015.56;5110271;28;20190;-68
2022/08/07 03:21:10;;;;;;;8.60;7.93;;;;;;;23.58;96.12;99017.91;5110900;28;20582;-68
2022/08/07 03:23:38;;;;;;;10.27;9.47;;;;;;;23.61;96.19;99014.19;5109811;28;20199;-68
2022/08/07 03:26:09;;;;;;;9.03;8.13;;;;;;;23.59;96.22;99011.69;5111413;28;20297;-68
2022/08/07 03:28:36;;;;;;;8.87;8.23;;;;;;;23.59;96.22;99006.44;5111382;28;20221;-68
2022/08/07 03:31:20;;;;;;;10.07;9.10;;;;;;;23.59;96.10;99022.16;5111379;28;20198;-68
2022/08/07 03:33:48;;;;;;;8.23;7.53;;;;;;;23.61;96.16;99015.00;5110052;28;20578;-68
2022/08/07 03:36:19;;;;;;;9.17;8.57;;;;;;;23.61;95.89;99004.53;5111411;28;20195;-69
2022/08/07 03:38:47;;;;;;;7.77;7.37;;;;;;;23.60;96.02;99015.97;5111104;28;20190;-69
2022/08/07 03:41:15;;;;;;;8.70;7.70;;;;;;;23.60;96.23;99018.59;5109728;28;20689;-68
2022/08/07 03:43:43;;;;;;;8.80;8.13;;;;;;;23.58;96.10;99025.75;5108005;28;20578;-68
2022/08/07 03:46:11;;;;;;;9.33;8.57;;;;;;;23.53;96.57;99020.09;5110910;28;20654;-68
2022/08/07 03:48:39;;;;;;;8.40;7.70;;;;;;;23.51;97.17;99030.72;5111591;28;20215;-69
2022/08/07 03:51:07;;;;;;;8.80;8.10;;;;;;;23.55;96.75;99025.19;5110900;28;20194;-69
2022/08/07 03:53:37;;;;;;;8.03;7.53;;;;;;;23.60;96.36;99018.59;5111073;28;20579;-69
2022/08/07 03:56:05;;;;;;;8.37;7.77;;;;;;;23.64;96.74;99014.72;5110541;28;20751;-69
2022/08/07 03:58:32;;;;;;;8.63;8.13;;;;;;;23.62;96.98;99011.41;5110949;28;20195;-69
2022/08/07 04:01:00;;;;;;;8.77;8.27;;;;;;;23.49;97.91;99013.47;5111094;28;20213;-69
2022/08/07 04:03:28;;;;;;;8.73;8.23;;;;;;;23.37;99.24;99014.53;5110707;28;20202;-69
2022/08/07 04:05:54;;;;;;;8.60;8.00;;;;;;;23.29;100.00;99010.00;5110822;28;20210;-69
2022/08/07 04:08:21;;;;;;;9.47;8.87;;;;;;;23.30;100.00;99019.47;5109744;28;20210;-69
2022/08/07 04:10:51;;;;;;;8.10;7.50;;;;;;;23.26;100.00;99018.13;5111235;28;20195;-69
2022/08/07 04:13:19;;;;;;;9.40;8.67;;;;;;;23.25;100.00;99018.25;5110631;28;20195;-69
2022/08/07 04:15:46;;;;;;;8.30;7.90;;;;;;;23.23;100.00;99015.75;5111038;28;20256;-69
2022/08/07 04:18:14;;;;;;;7.73;7.23;;;;;;;23.26;100.00;99019.91;5110588;28;20203;-69
2022/08/07 04:20:41;;;;;;;7.90;7.40;;;;;;;23.26;100.00;99022.53;5113876;28;20198;-69
2022/08/07 04:23:09;;;;;;;8.67;8.17;;;;;;;23.28;100.00;99017.97;5114292;28;20195;-68
2022/08/07 04:25:38;;;;;;;7.93;7.43;;;;;;;23.33;99.89;99021.00;5115171;28;20199;-69
2022/08/07 04:28:06;;;;;;;7.73;7.27;;;;;;;23.36;99.44;99016.31;5114984;28;20264;-69
2022/08/07 04:30:34;;;;;;;7.77;7.27;;;;;;;23.41;99.31;99018.56;5114664;28;20203;-69
2022/08/07 04:33:05;;;;;;;7.20;6.80;;;;;;;23.46;99.04;99024.19;5112334;28;20272;-69
2022/08/07 04:35:32;;;;;;;7.30;7.00;;;;;;;23.58;99.28;99023.13;5113088;28;20207;-69
2022/08/07 04:37:59;;;;;;;7.67;7.17;;;;;;;23.66;97.55;99017.19;5110407;28;20198;-69
2022/08/07 04:40:26;;;;;;;7.50;7.10;;;;;;;23.84;97.37;99019.00;5110513;28;20233;-69
2022/08/07 04:42:53;;;;;;;7.97;7.37;;;;;;;24.02;96.29;99027.78;5113203;28;20198;-69
2022/08/07 04:45:24;;;;;;;7.33;6.93;;;;;;;24.16;96.27;99016.09;5114901;28;20203;-69
2022/08/07 04:48:00;;;;;;;7.27;6.87;;;;;;;24.33;94.89;99025.81;5111413;28;20218;-69
2022/08/07 04:50:37;;;;;;;7.67;7.13;;;;;;;24.47;93.97;99029.78;5114416;28;20731;-69
2022/08/07 04:53:08;;;;;;;7.90;7.50;;;;;;;24.50;92.21;99034.72;5110610;28;20202;-69
2022/08/07 04:55:47;;;;;;;7.07;6.67;;;;;;;24.52;93.89;99038.06;5111361;28;20202;-69
2022/08/07 04:58:22;;;;;;;6.93;6.47;;;;;;;24.55;92.54;99045.63;5111080;28;20621;-69
2022/08/07 05:00:56;;;;;;;8.33;7.60;;;;;;;24.48;92.77;99026.19;5114193;28;20751;-69
2022/08/07 05:03:27;;;;;;;7.60;7.10;;;;;;;24.55;92.79;99045.63;5113944;28;20206;-68
2022/08/07 05:06:02;;;;;;;8.00;7.50;;;;;;;24.61;93.20;99052.91;5111418;28;20582;-69
2022/08/07 05:08:36;;;;;;;8.37;7.87;;;;;;;24.69;93.48;99050.41;5111566;27;20267;-69
2022/08/07 05:11:14;;;;;;;7.83;7.13;;;;;;;24.73;91.65;99051.75;5113146;27;20198;-69
2022/08/07 05:13:49;;;;;;;8.27;7.63;;;;;;;24.77;91.74;99047.91;5113993;28;20574;-70
2022/08/07 05:16:20;;;;;;;7.60;7.10;;;;;;;24.82;92.12;99055.34;5113940;28;20198;-69
2022/08/07 05:18:54;;;;;;;7.87;7.17;;;;;;;24.87;91.43;99059.19;5113608;27;20286;-69
2022/08/07 05:21:25;;;;;;;8.37;7.50;;;;;;;24.92;90.60;99056.13;5112492;28;20604;-69
2022/08/07 05:23:58;;;;;;;8.03;7.33;;;;;;;24.97;90.06;99060.00;5112008;28;20200;-68
2022/08/07 05:26:28;;;;;;;7.57;6.83;;;;;;;24.96;89.57;99057.50;5113114;28;20198;-69
2022/08/07 05:28:59;;;;;;;7.73;7.30;;;;;;;24.94;89.39;99052.38;5107947;28;20212;-69
2022/08/07 05:31:36;;;;;;;8.00;7.50;;;;;;;25.01;88.85;99056.09;5112969;28;20191;-69
2022/08/07 05:34:05;;;;;;;7.97;7.27;;;;;;;25.07;89.51;99055.50;5114079;28;20199;-69
2022/08/07 05:36:34;;;;;;;7.40;6.90;;;;;;;25.06;89.58;99061.72;5112948;28;20662;-69
2022/08/07 05:39:01;;;;;;;7.90;7.43;;;;;;;24.99;89.31;99047.53;5110987;28;20199;-69
2022/08/07 05:41:29;;;;;;;7.87;7.33;;;;;;;25.08;89.63;99057.16;5113763;28;20195;-69
2022/08/07 05:43:57;;;;;;;8.23;7.77;;;;;;;25.11;90.36;99060.44;5110334;28;20214;-69
2022/08/07 05:46:24;;;;;;;7.70;7.30;;;;;;;25.05;89.95;99057.44;5104444;28;20616;-69
2022/08/07 05:48:54;;;;;;;7.63;7.23;;;;;;;25.07;90.76;99055.50;5109978;28;20276;-69
2022/08/07 05:51:22;;;;;;;7.87;7.23;;;;;;;25.20;90.87;99064.84;5113301;28;20442;-69
2022/08/07 05:53:49;;;;;;;7.53;7.00;;;;;;;25.25;90.40;99062.59;5110724;28;20199;-69
2022/08/07 05:56:19;;;;;;;9.10;8.30;;;;;;;25.30;90.21;99076.91;5112896;28;20222;-69
2022/08/07 05:58:47;;;;;;;7.33;6.77;;;;;;;25.38;90.86;99077.00;5113564;28;20567;-70
2022/08/07 06:01:15;;;;;;;7.43;6.93;;;;;;;25.38;88.57;99078.81;5112994;28;20690;-69
2022/08/07 06:03:47;;;;;;;7.03;6.63;;;;;;;25.46;88.28;99086.78;5113297;28;20199;-69
2022/08/07 06:06:16;;;;;;;7.70;7.20;;;;;;;25.50;88.01;99088.97;5112853;28;20295;-68
2022/08/07 06:08:44;;;;;;;7.77;7.27;;;;;;;25.57;88.38;99084.78;5112170;28;20230;-68
2022/08/07 06:11:12;;;;;;;9.60;8.03;;;;;;;25.65;87.35;99080.59;5106305;27;20203;-69
2022/08/07 06:13:40;;;;;;;9.23;8.43;;;;;;;25.69;86.58;99092.47;5106672;28;20195;-69
2022/08/07 06:16:08;;;;;;;8.30;7.70;;;;;;;25.69;86.07;99084.59;5111233;28;20205;-69
2022/08/07 06:18:35;;;;;;;8.10;7.40;;;;;;;25.69;88.53;99088.00;5109046;27;20198;-69
2022/08/07 06:21:04;;;;;;;8.27;7.73;;;;;;;25.82;89.60;99085.84;5110377;28;20586;-69
2022/08/07 06:23:32;;;;;;;7.20;6.80;;;;;;;26.06;89.12;99074.72;5112248;28;20199;-69
2022/08/07 06:26:00;;;;;;;8.40;7.80;;;;;;;26.51;84.57;99085.94;5111718;28;20203;-69
2022/08/07 06:28:29;;;;;;;7.77;7.23;;;;;;;26.91;81.75;99088.00;5111681;28;20218;-69
2022/08/07 06:30:56;;;;;;;6.90;6.50;;;;;;;27.18;79.29;99088.75;5111054;28;20202;-69
2022/08/07 06:33:25;;;;;;;7.07;6.67;;;;;;;27.35;79.81;99091.31;5109273;28;20213;-69
2022/08/07 06:35:51;;;;;;;6.23;5.93;;;;;;;27.61;75.91;99096.50;5111361;28;20211;-69
2022/08/07 06:38:18;;;;;;;5.77;5.47;;;;;;;27.79;74.53;99094.53;5110220;28;20195;-69
2022/08/07 06:40:51;;;;;;;6.13;5.83;;;;;;;27.83;72.77;99089.78;5109053;28;20195;-68
2022/08/07 06:43:21;;;;;;;6.50;6.20;;;;;;;28.18;72.78;99100.03;5108583;28;20663;-69
2022/08/07 06:45:48;;;;;;;6.03;5.70;;;;;;;28.45;73.43;99096.22;5112743;28;20658;-69
2022/08/07 06:48:15;;;;;;;6.13;5.47;;;;;;;28.59;70.51;99095.56;5110552;28;20215;-69
2022/08/07 06:50:44;;;;;;;5.87;5.57;;;;;;;28.68;71.88;99097.22;5111872;28;20199;-69
2022/08/07 06:53:13;;;;;;;5.60;5.40;;;;;;;28.79;70.71;99094.19;5106406;28;20194;-69
2022/08/07 06:55:41;;;;;;;6.23;5.70;;;;;;;28.94;68.89;99076.69;5107279;28;20225;-69
2022/08/07 06:58:12;;;;;;;6.50;6.10;;;;;;;29.29;69.85;99090.41;5108518;28;20206;-69
2022/08/07 07:00:40;;;;;;;6.30;5.90;;;;;;;29.48;67.66;99095.25;5104479;28;20202;-69
2022/08/07 07:03:09;;;;;;;5.85;5.45;;;;;;;29.74;68.69;99100.22;5109754;28;20636;-69
2022/08/07 07:05:36;;;;;;;5.88;5.57;;;;;;;29.98;64.18;99100.94;5110338;28;20203;-69
2022/08/07 07:08:04;;;;;;;6.15;5.85;;;;;;;30.23;66.59;99095.44;5108682;28;20235;-69
2022/08/07 07:10:33;;;;;;;6.25;5.93;;;;;;;30.55;63.33;99111.03;5110708;27;20191;-69
2022/08/07 07:13:05;;;;;;;5.85;5.55;;;;;;;30.76;62.30;99108.47;5109161;28;20191;-69
2022/08/07 07:15:39;;;;;;;6.53;6.22;;;;;;;30.93;61.54;99104.66;5108627;28;20203;-68
2022/08/07 07:18:14;;;;;;;6.00;5.70;;;;;;;31.18;59.19;99103.38;5109254;28;20202;-69
2022/08/07 07:20:47;;;;;;;5.93;5.45;;;;;;;31.34;60.05;99106.84;5108680;28;20205;-69
2022/08/07 07:23:15;;;;;;;6.07;5.55;;;;;;;31.57;56.86;99112.84;5108207;28;20195;-69
2022/08/07 07:25:44;;;;;;;5.15;4.93;;;;;;;31.93;56.67;99107.50;5108887;28;20210;-69
2022/08/07 07:28:16;;;;;;;6.22;5.93;;;;;;;32.22;54.64;99113.53;5110063;28;20213;-69
2022/08/07 07:30:50;;;;;;;6.25;5.75;;;;;;;32.31;51.56;99111.56;5105478;28;20271;-69
2022/08/07 07:33:20;;;;;;;5.68;5.28;;;;;;;32.53;52.08;99112.34;5109514;28;20205;-71
2022/08/07 07:35:50;;;;;;;6.45;6.05;;;;;;;32.61;54.00;99098.94;5110784;28;20202;-67
2022/08/07 07:38:19;;;;;;;5.28;5.00;;;;;;;32.77;53.08;99111.91;5111159;28;20194;-68
2022/08/07 07:40:48;;;;;;;4.72;4.53;;;;;;;32.93;54.51;99119.56;5110113;28;20239;-66
2022/08/07 07:43:16;;;;;;;5.93;5.43;;;;;;;33.16;54.23;99112.16;5110908;28;20235;-68
2022/08/07 07:45:46;;;;;;;17.70;5.50;;;;;;;33.42;54.01;99111.44;5111596;28;20203;-68
2022/08/07 07:48:17;;;;;;;5.60;5.20;;;;;;;33.81;49.24;99120.56;5111663;28;20211;-67
2022/08/07 07:50:47;;;;;;;5.50;5.20;;;;;;;33.63;47.31;99118.50;5110461;28;20693;-68
2022/08/07 07:53:16;;;;;;;4.88;4.68;;;;;;;33.59;47.17;99119.88;5110312;28;20298;-68
2022/08/07 07:55:43;;;;;;;5.47;5.18;;;;;;;33.70;51.37;99116.69;5110683;28;20205;-69
2022/08/07 07:58:11;;;;;;;5.35;5.05;;;;;;;33.75;48.38;99122.19;5109052;28;20225;-68
2022/08/07 08:00:39;;;;;;;5.22;4.90;;;;;;;33.60;48.39;99130.38;5110710;28;20219;-68
2022/08/07 08:03:11;;;;;;;5.78;5.30;;;;;;;33.49;49.84;99122.09;5111163;28;20207;-68
2022/08/07 08:05:40;;;;;;;5.32;4.97;;;;;;;33.14;48.72;99124.81;5110956;28;20662;-68
2022/08/07 08:08:10;;;;;;;6.50;6.00;;;;;;;33.08;50.27;99108.81;5108420;28;20241;-69
2022/08/07 08:10:39;;;;;;;5.90;5.43;;;;;;;33.09;49.85;99121.91;5109459;28;20199;-68
2022/08/07 08:13:08;;;;;;;4.65;4.45;;;;;;;33.34;51.86;99124.91;5110945;28;20206;-68
2022/08/07 08:15:39;;;;;;;5.20;5.00;;;;;;;33.46;48.59;99123.31;5109955;28;20205;-68
2022/08/07 08:18:09;;;;;;;5.70;5.38;;;;;;;33.59;48.11;99120.69;5106443;28;20669;-70
2022/08/07 08:20:38;;;;;;;5.28;4.97;;;;;;;33.71;47.91;99126.28;5106040;28;20199;-67
2022/08/07 08:28:41;;;;;;;4.60;4.40;;;;;;;34.41;46.33;99122.31;5108753;28;20262;-67
2022/08/07 08:31:12;;;;;;;4.68;4.47;;;;;;;34.12;46.35;99121.66;5107677;28;20666;-67
2022/08/07 08:33:43;;;;;;;5.43;5.22;;;;;;;33.71;45.34;99131.59;5109170;28;21580;-69
2022/08/07 08:36:12;;;;;;;5.05;4.85;;;;;;;33.65;44.76;99121.75;5109249;28;20277;-69
2022/08/07 08:38:43;;;;;;;4.88;4.68;;;;;;;33.69;46.75;99123.84;5110229;28;20191;-69
2022/08/07 08:41:17;;;;;;;5.18;4.88;;;;;;;34.05;46.65;99118.16;5110296;28;20658;-68
2022/08/07 08:43:51;;;;;;;4.93;4.72;;;;;;;34.34;44.41;99121.47;5110451;28;20203;-68
2022/08/07 08:46:28;;;;;;;5.10;4.80;;;;;;;34.52;43.53;99113.69;5110609;28;20632;-69
2022/08/07 08:49:04;;;;;;;5.38;5.03;;;;;;;34.44;42.91;99114.72;5110038;28;20210;-68
2022/08/07 08:51:35;;;;;;;5.57;5.28;;;;;;;34.43;42.75;99109.59;5109020;28;20203;-69
2022/08/07 08:54:08;;;;;;;5.10;4.80;;;;;;;34.63;42.29;99108.59;5108240;28;20190;-69
2022/08/07 08:56:39;;;;;;;63.42;26.25;;;;;;;34.93;45.08;99103.56;5108466;28;20666;-68
2022/08/07 08:59:15;;;;;;;5.55;5.13;;;;;;;34.69;41.04;99106.94;5108086;28;20289;-67
2022/08/07 09:01:46;;;;;;;4.97;4.78;;;;;;;34.37;42.17;99110.41;5108077;28;20202;-68
2022/08/07 09:04:18;;;;;;;4.53;4.20;;;;;;;34.20;40.86;99110.84;5106584;28;20213;-68
2022/08/07 09:06:55;;;;;;;5.13;4.65;;;;;;;33.79;39.88;99123.44;5110830;28;20647;-67
2022/08/07 09:09:42;;;;;;;4.88;4.47;;;;;;;33.50;41.74;99105.13;5112818;28;20218;-68
2022/08/07 09:12:18;;;;;;;6.53;4.53;;;;;;;33.62;42.20;99107.03;5112664;28;20252;-68
2022/08/07 09:14:59;;;;;;;5.88;5.18;;;;;;;33.83;43.44;99103.38;5111597;28;20217;-69
2022/08/07 09:17:37;;;;;;;3.50;3.20;;;;;;;33.58;39.50;99099.63;5108113;28;20560;-68
2022/08/07 09:20:18;;;;;;;3.80;3.65;;;;;;;33.39;40.80;99111.00;5110902;28;20203;-67
2022/08/07 09:22:55;;;;;;;7.55;4.20;;;;;;;33.31;41.20;99108.53;5112535;28;20286;-69
2022/08/07 09:25:26;;;;;;;3.90;3.70;;;;;;;33.01;40.74;99103.47;5109841;28;20636;-68
2022/08/07 09:28:01;;;;;;;3.75;3.55;;;;;;;33.11;43.70;99098.66;5107161;28;20762;-69
2022/08/07 09:30:37;;;;;;;4.55;4.35;;;;;;;33.53;43.12;99091.44;5107692;28;20301;-69
2022/08/07 09:33:13;;;;;;;7.57;5.07;;;;;;;33.89;39.26;99102.59;5112309;28;20301;-67
2022/08/07 09:35:47;;;;;;;5.47;3.88;;;;;;;33.75;41.60;99096.44;5112039;28;20690;-69
2022/08/07 09:38:19;;;;;;;3.60;3.42;;;;;;;33.98;42.98;99096.06;5113195;27;20697;-69
2022/08/07 09:40:57;;;;;;;6.70;4.03;;;;;;;33.87;39.21;99093.97;5108436;28;20202;-67
2022/08/07 09:43:33;;;;;;;3.92;3.63;;;;;;;34.22;40.88;99084.81;5110634;28;20210;-69
2022/08/07 09:46:27;;;;;;;3.63;3.42;;;;;;;34.40;39.52;99099.34;5110512;28;20678;-69
2022/08/07 09:49:03;;;;;;;3.47;3.17;;;;;;;34.11;37.97;99089.94;5111194;28;20230;-68
2022/08/07 09:51:51;;;;;;;6.38;3.70;;;;;;;34.10;38.80;99088.28;5112201;27;20202;-69
2022/08/07 09:54:26;;;;;;;3.83;3.63;;;;;;;34.09;38.63;99086.66;5113089;28;20666;-69
2022/08/07 09:57:15;;;;;;;3.97;3.78;;;;;;;34.31;42.30;99079.31;5108988;28;20202;-68
2022/08/07 10:00:00;;;;;;;4.25;3.95;;;;;;;34.05;40.80;99069.47;5110775;28;20198;-69
2022/08/07 10:02:56;;;;;;;3.90;3.60;;;;;;;34.17;41.26;99063.34;5109084;28;20202;-69
2022/08/07 10:06:00;;;;;;;2.90;2.78;;;;;;;33.84;36.79;99070.47;5110874;28;20199;-68
2022/08/07 10:08:55;;;;;;;2.85;2.75;;;;;;;33.62;37.11;99066.34;5112477;28;20199;-67
2022/08/07 10:11:37;;;;;;;3.05;2.85;;;;;;;33.60;36.85;99065.69;5093878;27;20191;-68
2022/08/07 10:14:15;;;;;;;3.05;2.95;;;;;;;33.76;37.06;99060.03;5112030;28;20202;-67
2022/08/07 10:17:01;;;;;;;3.17;2.97;;;;;;;33.97;36.42;99057.16;5108478;28;20649;-69
2022/08/07 10:20:03;;;;;;;3.55;3.35;;;;;;;33.98;35.76;99053.50;5108807;28;20213;-68
2022/08/07 10:22:43;;;;;;;3.25;3.05;;;;;;;33.86;36.36;99055.13;5106399;28;20696;-69
2022/08/07 10:25:20;;;;;;;2.50;2.40;;;;;;;33.98;35.60;99053.50;5108812;28;20206;-68
2022/08/07 10:28:22;;;;;;;2.40;2.20;;;;;;;33.77;36.02;99045.69;5108482;28;20248;-68
2022/08/07 10:31:07;;;;;;;2.58;2.47;;;;;;;33.92;36.45;99053.50;5062165;28;20225;-68
2022/08/07 10:34:02;;;;;;;2.83;2.63;;;;;;;34.09;37.00;99044.88;5111517;28;20202;-69
2022/08/07 10:36:41;;;;;;;2.40;2.30;;;;;;;34.15;36.65;99048.63;5110397;28;20662;-68
2022/08/07 10:39:23;;;;;;;2.80;2.70;;;;;;;34.28;37.61;99054.72;5109409;28;20207;-68
2022/08/07 10:41:57;;;;;;;2.70;2.60;;;;;;;34.46;35.77;99045.28;5109218;28;20727;-69
2022/08/07 10:44:33;;;;;;;2.95;2.85;;;;;;;34.20;35.13;99041.66;5111363;28;20209;-68
2022/08/07 10:47:07;;;;;;;2.90;2.80;;;;;;;33.91;36.36;99044.69;5109251;28;20301;-68
2022/08/07 10:49:44;;;;;;;3.00;2.80;;;;;;;34.01;36.38;99053.09;5108276;28;20210;-68
2022/08/07 10:52:19;;;;;;;2.70;2.60;;;;;;;33.59;36.26;99042.78;5105809;28;20202;-68
2022/08/07 10:54:56;;;;;;;2.60;2.50;;;;;;;33.46;36.68;99050.72;5096640;28;20213;-68
2022/08/07 10:57:34;;;;;;;3.00;2.90;;;;;;;33.38;36.93;99037.63;5107779;28;20203;-68
2022/08/07 11:00:07;;;;;;;2.60;2.50;;;;;;;33.51;38.35;99046.44;5109001;28;20197;-69
2022/08/07 11:02:41;;;;;;;3.00;2.90;;;;;;;33.76;37.52;99036.09;5109383;28;20213;-69
2022/08/07 11:05:30;;;;;;;3.38;3.15;;;;;;;33.87;36.46;99040.78;5102483;28;20214;-69
2022/08/07 11:08:06;;;;;;;3.10;2.97;;;;;;;33.96;35.81;99030.78;5106257;27;20229;-69
2022/08/07 11:10:40;;;;;;;3.08;2.88;;;;;;;34.03;35.94;99031.56;5109107;28;20295;-67
2022/08/07 11:13:15;;;;;;;2.90;2.78;;;;;;;33.87;35.90;99030.16;5107290;28;20207;-67
2022/08/07 11:15:48;;;;;;;2.78;2.53;;;;;;;33.94;36.08;99025.66;5108007;28;20206;-68
2022/08/07 11:18:20;;;;;;;3.08;2.88;;;;;;;33.94;37.56;99017.69;5108870;28;20194;-68
2022/08/07 11:20:56;;;;;;;3.60;3.40;;;;;;;34.10;36.10;99017.25;5108668;28;20206;-69
2022/08/07 11:23:31;;;;;;;3.67;2.97;;;;;;;34.16;35.65;99023.63;5106840;28;20206;-68
2022/08/07 11:26:05;;;;;;;2.50;2.40;;;;;;;34.16;32.96;99019.13;5107193;28;20205;-67
2022/08/07 11:28:41;;;;;;;2.58;2.47;;;;;;;34.24;33.10;99016.25;5104639;28;20686;-67
2022/08/07 11:31:13;;;;;;;2.85;2.75;;;;;;;34.42;32.47;99018.25;5104615;28;20721;-68
2022/08/07 11:33:46;;;;;;;2.63;2.53;;;;;;;34.47;33.54;99020.31;5109663;28;20206;-68
2022/08/07 11:36:44;;;;;;;2.20;2.10;;;;;;;34.41;32.35;99015.81;5109844;28;20293;-68
2022/08/07 11:39:23;;;;;;;2.47;2.25;;;;;;;34.51;33.10;99010.88;5109230;28;20675;-68
2022/08/07 11:41:59;;;;;;;3.55;2.28;;;;;;;34.55;33.52;99006.75;5107759;28;20195;-67
2022/08/07 11:44:39;;;;;;;3.95;2.97;;;;;;;34.54;31.61;99011.25;5109450;28;20226;-66
2022/08/07 11:47:22;;;;;;;2.70;2.60;;;;;;;34.49;31.28;99007.59;5109330;28;20213;-66
2022/08/07 11:50:11;;;;;;;2.70;2.60;;;;;;;34.34;30.88;99012.34;5109140;28;20225;-68
2022/08/07 11:52:51;;;;;;;2.80;2.70;;;;;;;34.32;31.40;99001.06;5107684;27;20194;-68
2022/08/07 11:55:34;;;;;;;3.03;2.92;;;;;;;34.09;32.32;98997.00;5107368;28;20256;-67
2022/08/07 11:58:11;;;;;;;3.08;2.97;;;;;;;34.11;32.22;99005.63;5106324;28;20203;-68